PWSweather.com
Personal Weather Stations
Station Observations
IONTARIO88
Lincoln, ON L0R

Lincoln, ON L0R

Lat: 43.1763563, Lon: -79.4719525

Elevation: 297

Station Type: Davis Vantage Pro 2 Plus

http://www.beamsvillewx.ca

High Low Average
Temperature 84.0°F28.9°C 65.8°F18.8°C 72.8°F22.7°C
Dew Point 70.6°F21.4°C 47.6°F8.7°C 62.3°F16.8°C
Winds 12.0 mph 19.3 kmh Calm Calm 5.0 mph E8.0 kmh E
Wind Gusts 26.0 mph41.8 kmh -- 13.0 mph20.9 kmh
Humidity 91% 44% 71%
Pressure 29.85 in1010.8 mb 29.61 in1002.7 mb -
Precipitation 0.06 in1.5 mm - -
Hour Temp Dew Point Humidity Winds Wind Gusts Pressure Precip Precip Rate Daily Precip Total
12:00 AM 69.3°F20.7°C 60.6°F15.9°C 74% Calm Calm -- 29.86 in1011.2 mb 0.00 in0.0 mm 0.00 in0.0 mm 0.00 in0.0 mm
12:15 AM 70.5°F21.4°C 63.0°F17.2°C 77% Calm Calm 7.0 mph11.3 kmh 29.85 in1010.8 mb 0.00 in0.0 mm 0.00 in0.0 mm 0.00 in0.0 mm
12:30 AM 72.0°F22.2°C 63.2°F17.3°C 74% Calm Calm 2.0 mph3.2 kmh 29.85 in1010.8 mb 0.00 in0.0 mm 0.00 in0.0 mm 0.00 in0.0 mm
12:45 AM 68.5°F20.3°C 59.9°F15.5°C 74% Calm Calm 1.0 mph1.6 kmh 29.85 in1010.8 mb 0.00 in0.0 mm 0.00 in0.0 mm 0.00 in0.0 mm
01:00 AM 66.7°F19.3°C 59.3°F15.2°C 77% Calm Calm 3.0 mph4.8 kmh 29.84 in1010.5 mb 0.00 in0.0 mm 0.00 in0.0 mm 0.00 in0.0 mm
01:15 AM 66.0°F18.9°C 59.7°F15.4°C 80% Calm Calm -- 29.84 in1010.5 mb 0.00 in0.0 mm 0.00 in0.0 mm 0.00 in0.0 mm
01:30 AM 68.2°F20.1°C 63.2°F17.3°C 84% 2.0 mph NE3.2 kmh NE 11.0 mph17.7 kmh 29.83 in1010.2 mb 0.00 in0.0 mm 0.00 in0.0 mm 0.00 in0.0 mm
01:45 AM 71.4°F21.9°C 65.3°F18.5°C 81% 4.0 mph NE6.4 kmh NE 12.0 mph19.3 kmh 29.83 in1010.2 mb 0.01 in0.3 mm 0.04 in1.0 mm 0.01 in0.3 mm
02:00 AM 71.1°F21.7°C 64.9°F18.3°C 81% 3.0 mph NE4.8 kmh NE 11.0 mph17.7 kmh 29.82 in1009.8 mb 0.01 in0.3 mm 0.00 in0.0 mm 0.01 in0.3 mm
02:15 AM 70.5°F21.4°C 64.8°F18.2°C 82% 2.0 mph NE3.2 kmh NE 10.0 mph16.1 kmh 29.82 in1009.8 mb 0.01 in0.3 mm 0.00 in0.0 mm 0.01 in0.3 mm
02:30 AM 70.5°F21.4°C 64.8°F18.2°C 82% Calm Calm 6.0 mph9.7 kmh 29.81 in1009.5 mb 0.01 in0.3 mm 0.00 in0.0 mm 0.01 in0.3 mm
02:45 AM 70.3°F21.3°C 64.6°F18.1°C 82% 1.0 mph NE1.6 kmh NE 5.0 mph8.0 kmh 29.81 in1009.5 mb 0.00 in0.0 mm 0.00 in0.0 mm 0.01 in0.3 mm
03:00 AM 70.5°F21.4°C 64.4°F18.0°C 81% 1.0 mph NE1.6 kmh NE 7.0 mph11.3 kmh 29.80 in1009.1 mb 0.00 in0.0 mm 0.00 in0.0 mm 0.01 in0.3 mm
03:15 AM 70.5°F21.4°C 64.4°F18.0°C 81% 1.0 mph NE1.6 kmh NE 8.0 mph12.9 kmh 29.80 in1009.1 mb 0.00 in0.0 mm 0.00 in0.0 mm 0.01 in0.3 mm
03:30 AM 70.5°F21.4°C 64.4°F18.0°C 81% 1.0 mph NE1.6 kmh NE 5.0 mph8.0 kmh 29.80 in1009.1 mb 0.00 in0.0 mm 0.00 in0.0 mm 0.01 in0.3 mm
03:45 AM 70.5°F21.4°C 64.0°F17.8°C 80% 2.0 mph NE3.2 kmh NE 7.0 mph11.3 kmh 29.80 in1009.1 mb 0.00 in0.0 mm 0.00 in0.0 mm 0.01 in0.3 mm
04:00 AM 70.5°F21.4°C 64.0°F17.8°C 80% 3.0 mph NE4.8 kmh NE 12.0 mph19.3 kmh 29.79 in1008.8 mb 0.00 in0.0 mm 0.00 in0.0 mm 0.01 in0.3 mm
04:15 AM 70.5°F21.4°C 64.0°F17.8°C 80% 1.0 mph NE1.6 kmh NE 8.0 mph12.9 kmh 29.79 in1008.8 mb 0.00 in0.0 mm 0.00 in0.0 mm 0.01 in0.3 mm
04:30 AM 70.3°F21.3°C 64.2°F17.9°C 81% 2.0 mph NE3.2 kmh NE 9.0 mph14.5 kmh 29.79 in1008.8 mb 0.00 in0.0 mm 0.00 in0.0 mm 0.01 in0.3 mm
04:45 AM 70.0°F21.1°C 64.2°F17.9°C 82% 1.0 mph NE1.6 kmh NE 8.0 mph12.9 kmh 29.78 in1008.5 mb 0.00 in0.0 mm 0.00 in0.0 mm 0.01 in0.3 mm
05:00 AM 69.4°F20.8°C 64.0°F17.8°C 83% 1.0 mph NE1.6 kmh NE 7.0 mph11.3 kmh 29.77 in1008.1 mb 0.00 in0.0 mm 0.00 in0.0 mm 0.01 in0.3 mm
05:15 AM 69.3°F20.7°C 64.2°F17.9°C 84% Calm Calm 4.0 mph6.4 kmh 29.77 in1008.1 mb 0.00 in0.0 mm 0.00 in0.0 mm 0.01 in0.3 mm
05:30 AM 69.3°F20.7°C 64.6°F18.1°C 85% Calm Calm 2.0 mph3.2 kmh 29.77 in1008.1 mb 0.00 in0.0 mm 0.00 in0.0 mm 0.01 in0.3 mm
05:45 AM 69.1°F20.6°C 64.4°F18.0°C 85% Calm Calm 2.0 mph3.2 kmh 29.77 in1008.1 mb 0.00 in0.0 mm 0.00 in0.0 mm 0.01 in0.3 mm
06:00 AM 69.1°F20.6°C 64.4°F18.0°C 85% Calm Calm 3.0 mph4.8 kmh 29.77 in1008.1 mb 0.00 in0.0 mm 0.00 in0.0 mm 0.01 in0.3 mm
06:15 AM 68.9°F20.5°C 64.5°F18.1°C 86% Calm Calm 3.0 mph4.8 kmh 29.76 in1007.8 mb 0.00 in0.0 mm 0.00 in0.0 mm 0.01 in0.3 mm
06:30 AM 68.5°F20.3°C 64.8°F18.2°C 88% Calm Calm 3.0 mph4.8 kmh 29.76 in1007.8 mb 0.00 in0.0 mm 0.00 in0.0 mm 0.01 in0.3 mm
06:45 AM 68.2°F20.1°C 64.8°F18.2°C 89% Calm Calm 3.0 mph4.8 kmh 29.75 in1007.5 mb 0.00 in0.0 mm 0.00 in0.0 mm 0.01 in0.3 mm
07:00 AM 68.2°F20.1°C 65.1°F18.4°C 90% 1.0 mph NE1.6 kmh NE 6.0 mph9.7 kmh 29.75 in1007.5 mb 0.00 in0.0 mm 0.00 in0.0 mm 0.01 in0.3 mm
07:15 AM 68.2°F20.1°C 65.1°F18.4°C 90% 1.0 mph NE1.6 kmh NE 5.0 mph8.0 kmh 29.74 in1007.1 mb 0.00 in0.0 mm 0.00 in0.0 mm 0.01 in0.3 mm
07:30 AM 68.4°F20.2°C 65.3°F18.5°C 90% 1.0 mph NE1.6 kmh NE 7.0 mph11.3 kmh 29.74 in1007.1 mb 0.00 in0.0 mm 0.00 in0.0 mm 0.01 in0.3 mm
07:45 AM 68.4°F20.2°C 65.6°F18.7°C 91% 1.0 mph NE1.6 kmh NE 5.0 mph8.0 kmh 29.73 in1006.8 mb 0.00 in0.0 mm 0.00 in0.0 mm 0.01 in0.3 mm
08:00 AM 68.5°F20.3°C 65.8°F18.8°C 91% Calm Calm 6.0 mph9.7 kmh 29.73 in1006.8 mb 0.00 in0.0 mm 0.00 in0.0 mm 0.01 in0.3 mm
08:15 AM 69.3°F20.7°C 66.5°F19.2°C 91% 2.0 mph NE3.2 kmh NE 7.0 mph11.3 kmh 29.73 in1006.8 mb 0.00 in0.0 mm 0.00 in0.0 mm 0.01 in0.3 mm
08:30 AM 69.6°F20.9°C 66.9°F19.4°C 91% Calm Calm 5.0 mph8.0 kmh 29.73 in1006.8 mb 0.00 in0.0 mm 0.00 in0.0 mm 0.01 in0.3 mm
08:45 AM 70.3°F21.3°C 67.3°F19.6°C 90% 1.0 mph NE1.6 kmh NE 7.0 mph11.3 kmh 29.73 in1006.8 mb 0.00 in0.0 mm 0.00 in0.0 mm 0.01 in0.3 mm
09:00 AM 71.2°F21.8°C 68.2°F20.1°C 90% 2.0 mph ENE3.2 kmh ENE 9.0 mph14.5 kmh 29.73 in1006.8 mb 0.00 in0.0 mm 0.00 in0.0 mm 0.01 in0.3 mm
09:15 AM 72.9°F22.7°C 69.1°F20.6°C 88% 3.0 mph E4.8 kmh E 9.0 mph14.5 kmh 29.73 in1006.8 mb 0.00 in0.0 mm 0.00 in0.0 mm 0.01 in0.3 mm
09:30 AM 73.2°F22.9°C 68.8°F20.4°C 86% 5.0 mph E8.0 kmh E 11.0 mph17.7 kmh 29.74 in1007.1 mb 0.00 in0.0 mm 0.00 in0.0 mm 0.01 in0.3 mm
09:45 AM 73.8°F23.2°C 69.0°F20.6°C 85% 4.0 mph E6.4 kmh E 12.0 mph19.3 kmh 29.74 in1007.1 mb 0.00 in0.0 mm 0.00 in0.0 mm 0.01 in0.3 mm
10:00 AM 74.1°F23.4°C 69.0°F20.6°C 84% 4.0 mph E6.4 kmh E 11.0 mph17.7 kmh 29.73 in1006.8 mb 0.00 in0.0 mm 0.00 in0.0 mm 0.01 in0.3 mm
10:15 AM 75.0°F23.9°C 69.1°F20.6°C 82% 5.0 mph E8.0 kmh E 11.0 mph17.7 kmh 29.73 in1006.8 mb 0.00 in0.0 mm 0.00 in0.0 mm 0.01 in0.3 mm
10:30 AM 75.7°F24.3°C 69.9°F21.1°C 82% 5.0 mph E8.0 kmh E 11.0 mph17.7 kmh 29.73 in1006.8 mb 0.00 in0.0 mm 0.00 in0.0 mm 0.01 in0.3 mm
10:45 AM 76.1°F24.5°C 69.1°F20.6°C 79% 3.0 mph E4.8 kmh E 10.0 mph16.1 kmh 29.73 in1006.8 mb 0.00 in0.0 mm 0.00 in0.0 mm 0.01 in0.3 mm
11:00 AM 76.6°F24.8°C 68.9°F20.5°C 77% 5.0 mph E8.0 kmh E 10.0 mph16.1 kmh 29.72 in1006.4 mb 0.00 in0.0 mm 0.00 in0.0 mm 0.01 in0.3 mm
11:15 AM 77.4°F25.2°C 69.6°F20.9°C 77% 4.0 mph E6.4 kmh E 11.0 mph17.7 kmh 29.72 in1006.4 mb 0.00 in0.0 mm 0.00 in0.0 mm 0.01 in0.3 mm
11:30 AM 77.2°F25.1°C 69.4°F20.8°C 77% 5.0 mph E8.0 kmh E 11.0 mph17.7 kmh 29.72 in1006.4 mb 0.00 in0.0 mm 0.00 in0.0 mm 0.01 in0.3 mm
11:45 AM 77.9°F25.5°C 69.7°F20.9°C 76% 5.0 mph E8.0 kmh E 13.0 mph20.9 kmh 29.73 in1006.8 mb 0.00 in0.0 mm 0.00 in0.0 mm 0.01 in0.3 mm
12:00 PM 78.1°F25.6°C 69.9°F21.1°C 76% 6.0 mph E9.7 kmh E 12.0 mph19.3 kmh 29.72 in1006.4 mb 0.00 in0.0 mm 0.00 in0.0 mm 0.01 in0.3 mm
12:15 PM 79.3°F26.3°C 69.5°F20.8°C 72% 5.0 mph E8.0 kmh E 13.0 mph20.9 kmh 29.72 in1006.4 mb 0.00 in0.0 mm 0.00 in0.0 mm 0.01 in0.3 mm
12:30 PM 80.6°F27.0°C 68.6°F20.3°C 67% 7.0 mph ESE11.3 kmh ESE 14.0 mph22.5 kmh 29.72 in1006.4 mb 0.00 in0.0 mm 0.00 in0.0 mm 0.01 in0.3 mm
12:45 PM 81.7°F27.6°C 68.3°F20.2°C 64% 5.0 mph E8.0 kmh E 14.0 mph22.5 kmh 29.71 in1006.1 mb 0.00 in0.0 mm 0.00 in0.0 mm 0.01 in0.3 mm
01:00 PM 81.7°F27.6°C 69.7°F20.9°C 67% 5.0 mph E8.0 kmh E 14.0 mph22.5 kmh 29.71 in1006.1 mb 0.00 in0.0 mm 0.00 in0.0 mm 0.01 in0.3 mm
01:15 PM 79.7°F26.5°C 69.5°F20.8°C 71% 4.0 mph NE6.4 kmh NE 12.0 mph19.3 kmh 29.71 in1006.1 mb 0.00 in0.0 mm 0.00 in0.0 mm 0.01 in0.3 mm
01:30 PM 81.3°F27.4°C 70.6°F21.4°C 70% 4.0 mph NE6.4 kmh NE 13.0 mph20.9 kmh 29.68 in1005.1 mb 0.00 in0.0 mm 0.00 in0.0 mm 0.01 in0.3 mm
01:45 PM 82.8°F28.2°C 69.8°F21.0°C 65% 4.0 mph NE6.4 kmh NE 12.0 mph19.3 kmh 29.68 in1005.1 mb 0.00 in0.0 mm 0.00 in0.0 mm 0.01 in0.3 mm
02:00 PM 81.7°F27.6°C 70.5°F21.4°C 69% 5.0 mph NE8.0 kmh NE 17.0 mph27.4 kmh 29.68 in1005.1 mb 0.00 in0.0 mm 0.00 in0.0 mm 0.01 in0.3 mm
02:15 PM 82.2°F27.9°C 70.2°F21.2°C 67% 5.0 mph NE8.0 kmh NE 13.0 mph20.9 kmh 29.66 in1004.4 mb 0.00 in0.0 mm 0.00 in0.0 mm 0.01 in0.3 mm
02:30 PM 82.2°F27.9°C 70.2°F21.2°C 67% 6.0 mph NE9.7 kmh NE 18.0 mph29.0 kmh 29.65 in1004.1 mb 0.00 in0.0 mm 0.00 in0.0 mm 0.01 in0.3 mm
02:45 PM 82.9°F28.3°C 70.0°F21.1°C 65% 7.0 mph NE11.3 kmh NE 15.0 mph24.1 kmh 29.64 in1003.7 mb 0.00 in0.0 mm 0.00 in0.0 mm 0.01 in0.3 mm
03:00 PM 84.0°F28.9°C 70.1°F21.2°C 63% 6.0 mph NE9.7 kmh NE 19.0 mph30.6 kmh 29.64 in1003.7 mb 0.00 in0.0 mm 0.00 in0.0 mm 0.01 in0.3 mm
03:15 PM 82.2°F27.9°C 69.3°F20.7°C 65% 5.0 mph NE8.0 kmh NE 16.0 mph25.7 kmh 29.61 in1002.7 mb 0.00 in0.0 mm 0.00 in0.0 mm 0.01 in0.3 mm
03:30 PM 79.9°F26.6°C 68.8°F20.4°C 69% 9.0 mph NE14.5 kmh NE 22.0 mph35.4 kmh 29.64 in1003.7 mb 0.00 in0.0 mm 0.00 in0.0 mm 0.01 in0.3 mm
03:45 PM 78.6°F25.9°C 68.8°F20.4°C 72% 8.0 mph NE12.9 kmh NE 19.0 mph30.6 kmh 29.64 in1003.7 mb 0.00 in0.0 mm 0.00 in0.0 mm 0.01 in0.3 mm
04:00 PM 75.9°F24.4°C 69.7°F20.9°C 81% 9.0 mph NE14.5 kmh NE 21.0 mph33.8 kmh 29.64 in1003.7 mb 0.05 in1.3 mm 0.07 in1.8 mm 0.06 in1.5 mm
04:15 PM 73.2°F22.9°C 67.7°F19.8°C 83% 9.0 mph NE14.5 kmh NE 24.0 mph38.6 kmh 29.61 in1002.7 mb 0.06 in1.5 mm 0.04 in1.0 mm 0.06 in1.5 mm
04:30 PM 73.2°F22.9°C 63.6°F17.6°C 72% 7.0 mph NE11.3 kmh NE 17.0 mph27.4 kmh 29.63 in1003.4 mb 0.06 in1.5 mm 0.00 in0.0 mm 0.06 in1.5 mm
04:45 PM 71.4°F21.9°C 64.9°F18.3°C 80% 9.0 mph ENE14.5 kmh ENE 18.0 mph29.0 kmh 29.66 in1004.4 mb 0.06 in1.5 mm 0.00 in0.0 mm 0.06 in1.5 mm
05:00 PM 72.1°F22.3°C 64.9°F18.3°C 78% 8.0 mph E12.9 kmh E 18.0 mph29.0 kmh 29.67 in1004.7 mb 0.01 in0.3 mm 0.00 in0.0 mm 0.06 in1.5 mm
05:15 PM 74.5°F23.6°C 65.6°F18.7°C 74% 7.0 mph ESE11.3 kmh ESE 16.0 mph25.7 kmh 29.68 in1005.1 mb 0.00 in0.0 mm 0.00 in0.0 mm 0.06 in1.5 mm
05:30 PM 75.7°F24.3°C 65.3°F18.5°C 70% 10.0 mph SE16.1 kmh SE 19.0 mph30.6 kmh 29.69 in1005.4 mb 0.00 in0.0 mm 0.00 in0.0 mm 0.06 in1.5 mm
05:45 PM 76.8°F24.9°C 65.0°F18.3°C 67% 8.0 mph SE12.9 kmh SE 19.0 mph30.6 kmh 29.69 in1005.4 mb 0.00 in0.0 mm 0.00 in0.0 mm 0.06 in1.5 mm
06:00 PM 76.3°F24.6°C 63.2°F17.3°C 64% 8.0 mph SSE12.9 kmh SSE 16.0 mph25.7 kmh 29.70 in1005.8 mb 0.00 in0.0 mm 0.00 in0.0 mm 0.06 in1.5 mm
06:15 PM 76.1°F24.5°C 61.2°F16.2°C 60% 9.0 mph SE14.5 kmh SE 16.0 mph25.7 kmh 29.71 in1006.1 mb 0.00 in0.0 mm 0.00 in0.0 mm 0.06 in1.5 mm
06:30 PM 76.3°F24.6°C 60.9°F16.1°C 59% 8.0 mph SE12.9 kmh SE 17.0 mph27.4 kmh 29.71 in1006.1 mb 0.00 in0.0 mm 0.00 in0.0 mm 0.06 in1.5 mm
06:45 PM 75.9°F24.4°C 59.1°F15.1°C 56% 9.0 mph SSE14.5 kmh SSE 19.0 mph30.6 kmh 29.73 in1006.8 mb 0.00 in0.0 mm 0.00 in0.0 mm 0.06 in1.5 mm
07:00 PM 75.7°F24.3°C 55.8°F13.2°C 50% 10.0 mph SE16.1 kmh SE 21.0 mph33.8 kmh 29.74 in1007.1 mb 0.00 in0.0 mm 0.00 in0.0 mm 0.06 in1.5 mm
07:15 PM 75.2°F24.0°C 53.0°F11.7°C 46% 11.0 mph SE17.7 kmh SE 25.0 mph40.2 kmh 29.75 in1007.5 mb 0.00 in0.0 mm 0.00 in0.0 mm 0.06 in1.5 mm
07:30 PM 74.7°F23.7°C 51.3°F10.7°C 44% 9.0 mph SE14.5 kmh SE 21.0 mph33.8 kmh 29.76 in1007.8 mb 0.00 in0.0 mm 0.00 in0.0 mm 0.06 in1.5 mm
07:45 PM 72.9°F22.7°C 50.9°F10.5°C 46% 12.0 mph SE19.3 kmh SE 25.0 mph40.2 kmh 29.77 in1008.1 mb 0.00 in0.0 mm 0.00 in0.0 mm 0.06 in1.5 mm
08:00 PM 71.8°F22.1°C 51.6°F10.9°C 49% 10.0 mph SSE16.1 kmh SSE 23.0 mph37.0 kmh 29.78 in1008.5 mb 0.00 in0.0 mm 0.00 in0.0 mm 0.06 in1.5 mm
08:15 PM 71.1°F21.7°C 50.9°F10.5°C 49% 10.0 mph SSE16.1 kmh SSE 22.0 mph35.4 kmh 29.79 in1008.8 mb 0.00 in0.0 mm 0.00 in0.0 mm 0.06 in1.5 mm
08:30 PM 70.3°F21.3°C 51.9°F11.1°C 52% 8.0 mph SE12.9 kmh SE 17.0 mph27.4 kmh 29.79 in1008.8 mb 0.00 in0.0 mm 0.00 in0.0 mm 0.06 in1.5 mm
08:45 PM 69.6°F20.9°C 51.7°F10.9°C 53% 5.0 mph SE8.0 kmh SE 11.0 mph17.7 kmh 29.79 in1008.8 mb 0.00 in0.0 mm 0.00 in0.0 mm 0.06 in1.5 mm
09:00 PM 70.3°F21.3°C 50.3°F10.2°C 49% 8.0 mph SE12.9 kmh SE 21.0 mph33.8 kmh 29.79 in1008.8 mb 0.00 in0.0 mm 0.00 in0.0 mm 0.06 in1.5 mm
09:15 PM 70.9°F21.6°C 50.8°F10.4°C 49% 10.0 mph SE16.1 kmh SE 26.0 mph41.8 kmh 29.79 in1008.8 mb 0.00 in0.0 mm 0.00 in0.0 mm 0.06 in1.5 mm
09:30 PM 70.5°F21.4°C 51.0°F10.6°C 50% 8.0 mph SE12.9 kmh SE 21.0 mph33.8 kmh 29.80 in1009.1 mb 0.00 in0.0 mm 0.00 in0.0 mm 0.06 in1.5 mm
09:45 PM 70.3°F21.3°C 51.3°F10.7°C 51% 11.0 mph SE17.7 kmh SE 24.0 mph38.6 kmh 29.81 in1009.5 mb 0.00 in0.0 mm 0.00 in0.0 mm 0.06 in1.5 mm
10:00 PM 69.8°F21.0°C 50.9°F10.5°C 51% 11.0 mph SE17.7 kmh SE 22.0 mph35.4 kmh 29.82 in1009.8 mb 0.00 in0.0 mm 0.00 in0.0 mm 0.06 in1.5 mm
10:15 PM 69.1°F20.6°C 50.2°F10.1°C 51% 9.0 mph SE14.5 kmh SE 22.0 mph35.4 kmh 29.82 in1009.8 mb 0.00 in0.0 mm 0.00 in0.0 mm 0.06 in1.5 mm
10:30 PM 68.4°F20.2°C 48.5°F9.2°C 49% 8.0 mph SE12.9 kmh SE 19.0 mph30.6 kmh 29.83 in1010.2 mb 0.00 in0.0 mm 0.00 in0.0 mm 0.06 in1.5 mm
10:45 PM 68.0°F20.0°C 47.6°F8.7°C 48% 10.0 mph SE16.1 kmh SE 24.0 mph38.6 kmh 29.83 in1010.2 mb 0.00 in0.0 mm 0.00 in0.0 mm 0.06 in1.5 mm
11:00 PM 67.6°F19.8°C 48.3°F9.1°C 50% 8.0 mph SE12.9 kmh SE 18.0 mph29.0 kmh 29.83 in1010.2 mb 0.00 in0.0 mm 0.00 in0.0 mm 0.06 in1.5 mm
11:15 PM 67.3°F19.6°C 48.0°F8.9°C 50% 8.0 mph SE12.9 kmh SE 15.0 mph24.1 kmh 29.83 in1010.2 mb 0.00 in0.0 mm 0.00 in0.0 mm 0.06 in1.5 mm
11:30 PM 67.1°F19.5°C 48.4°F9.1°C 51% 7.0 mph ESE11.3 kmh ESE 18.0 mph29.0 kmh 29.84 in1010.5 mb 0.00 in0.0 mm 0.00 in0.0 mm 0.06 in1.5 mm
11:45 PM 66.7°F19.3°C 49.1°F9.5°C 53% 6.0 mph ESE9.7 kmh ESE 17.0 mph27.4 kmh 29.85 in1010.8 mb 0.00 in0.0 mm 0.00 in0.0 mm 0.06 in1.5 mm